Aviation Digital Data Service (ADDS)

Output produced by METARs form (0314 UTC 20 April 2014)
found at http://www.aviationweather.gov/adds/metars/
 
KBMI 192320Z 2000/2024 15009KT P6SM SCT250 
     FM201400 17013KT P6SM SCT250